Terminal Aerodrome Forecast
Issued by NWS

Home | Current Version | Previous Version | Text Only | Print | Product List | Glossary On
Versions: 1 2 3 4 5 6 7 8 9 10 11 12 13 14 15 16 17 18 19 20 21 22 23 24 25 26 27 28 29 30 31
000
FTUS41 KOKX 231400 AAA
TAFTEB
TAF AMD
KTEB 231430Z 2315/2412 35014G23KT P6SM VCSH SCT015 BKN025 OVC060
      TEMPO 2315/2317 BKN015
     FM231900 34014G21KT P6SM BKN030 OVC080
     FM232200 33012G20KT P6SM BKN040 BKN080
     FM240300 33011G16KT P6SM BKN050 BKN080
     FM240600 33008KT P6SM BKN050 BKN080=

USA.gov is the U.S. government's official web portal to all federal, state and local government web resources and services.